Flight Track Log - Related Links

Times and Time Zones

All times are in EDT time to prevent confusion due to time zone crossing. See the ELJ442 flight status page for this flight to view local times or setup timezone preferences in your user account.


Time Position Orientation Groundspeed Altitude Reporting Facility
EDT Latitude Longitude Course Direction KTS MPH feet Rate Location/Type
Sat 04:39:07 PM 26.7331 -80.0386 334° Northwest 175 201 6,800  Level Miami Center
Sat 04:40:07 PM 26.7628 -80.1117 295° West 200 230 9,600 2,850 Climbing Miami Center
Sat 04:41:07 PM 26.7964 -80.1964 294° West 274 315 12,500 2,250 Climbing Miami Center
Sat 04:42:07 PM 26.8500 -80.3072 298° West 351 404 14,100 1,750 Climbing Miami Center
Sat 04:43:00 PM 26.9680 -80.3785 334° Northwest  Level FlightAware Approximate
Sat 04:43:07 PM 26.9444 -80.3706 329° Northwest 375 432 16,000  Level Miami Center
Sat 04:44:00 PM 27.0626 -80.4311 334° Northwest  Level FlightAware Approximate
Sat 04:44:07 PM 27.0436 -80.4178 337° Northwest 375 432 20,400  Level Miami Center
Sat 04:45:07 PM 27.1428 -80.4606 339° North 380 437 22,800 2,450 Climbing Miami Center
Sat 04:46:07 PM 27.2503 -80.5106 338° Northwest 391 450 25,300 2,200 Climbing Miami Center
Sat 04:47:07 PM 27.3422 -80.5836 325° Northwest 396 456 27,200 1,950 Climbing Miami Center
Sat 04:48:07 PM 27.4297 -80.6753 317° Northwest 415 478 29,200 1,550 Climbing Miami Center
Sat 04:49:07 PM 27.5047 -80.7575 316° Northwest 415 478 30,300 1,700 Climbing Miami Center
Sat 04:50:07 PM 27.5897 -80.8517 316° Northwest 421 484 32,600 2,150 Climbing Miami Center
Sat 04:51:07 PM 27.6750 -80.9439 316° Northwest 421 484 34,600 1,650 Climbing Miami Center
Sat 04:52:07 PM 27.7733 -81.0014 333° Northwest 409 471 35,900 1,400 Climbing Miami Center
Sat 04:53:07 PM 27.8850 -81.0358 345° North 402 463 37,400 1,450 Climbing Miami Center
Sat 04:54:07 PM 27.9925 -81.0728 343° North 407 468 38,800 1,400 Climbing Miami Center
Sat 04:55:07 PM 28.1019 -81.1144 341° North 402 463 40,200 1,100 Climbing Miami Center
Sat 04:56:07 PM 28.2072 -81.1514 343° North 397 457 41,000 312 Climbing Miami Center
Sat 04:57:41 PM 28.3831 -81.2175 342° North 412 474 41,000  Level Jacksonville Center
Sat 04:58:41 PM 28.5047 -81.2603 343° North 412 474 41,000  Level Jacksonville Center
Sat 04:59:41 PM 28.6181 -81.3033 342° North 418 481 41,000  Level Jacksonville Center
Sat 05:00:41 PM 28.7292 -81.3442 342° North 418 481 41,000  Level Jacksonville Center
Sat 05:01:41 PM 28.8444 -81.3850 343° North 428 493 41,000  Level Jacksonville Center
Sat 05:02:41 PM 28.9556 -81.4236 343° North 428 493 41,000  Level Jacksonville Center
Sat 05:03:41 PM 29.0686 -81.4672 341° North 428 493 41,000  Level Jacksonville Center
Sat 05:04:41 PM 29.1817 -81.5058 343° North 428 493 41,000  Level Jacksonville Center
Sat 05:05:41 PM 29.2844 -81.5378 345° North 423 487 41,000  Level Jacksonville Center
Sat 05:06:41 PM 29.3975 -81.5769 343° North 423 487 41,000  Level Jacksonville Center
Sat 05:07:41 PM 29.5147 -81.6158 344° North 423 487 41,000  Level Jacksonville Center
Sat 05:08:41 PM 29.6278 -81.6525 344° North 423 487 41,000  Level Jacksonville Center
Sat 05:09:41 PM 29.7453 -81.6917 344° North 423 487 41,000  Level Jacksonville Center
Sat 05:10:41 PM 29.8583 -81.7286 344° North 418 481 41,000  Level Jacksonville Center
Sat 05:11:41 PM 29.9714 -81.7656 344° North 418 481 41,000  Level Jacksonville Center
Sat 05:12:41 PM 30.0886 -81.8003 346° North 423 487 41,000  Level Jacksonville Center
Sat 05:13:41 PM 30.1994 -81.8400 343° North 418 481 41,000  Level Jacksonville Center
Sat 05:14:41 PM 30.3106 -81.8772 344° North 418 481 41,000  Level Jacksonville Center
Sat 05:15:41 PM 30.4194 -81.9144 344° North 413 475 41,000  Level Jacksonville Center
Sat 05:16:41 PM 30.5281 -81.9472 345° North 407 468 41,000  Level Jacksonville Center
Sat 05:17:41 PM 30.6369 -81.9919 341° North 407 468 41,000  Level Jacksonville Center
Sat 05:18:41 PM 30.7439 -82.0272 344° North 407 468 41,000  Level Jacksonville Center
Sat 05:19:41 PM 30.8525 -82.0650 343° North 402 463 41,000  Level Jacksonville Center
Sat 05:20:41 PM 30.9614 -82.1028 343° North 402 463 41,000  Level Jacksonville Center
Sat 05:21:41 PM 31.0703 -82.1406 343° North 402 463 41,000  Level Jacksonville Center
Sat 05:22:41 PM 31.1792 -82.1786 343° North 402 463 41,000  Level Jacksonville Center
Sat 05:23:41 PM 31.2878 -82.2167 343° North 402 463 41,000 150 Level Jacksonville Center
Sat 05:24:41 PM 31.4008 -82.2550 344° North 407 468 41,300 950 Climbing Jacksonville Center
Sat 05:25:41 PM 31.5053 -82.2908 344° North 402 463 42,900 850 Climbing Jacksonville Center
Sat 05:26:41 PM 31.6058 -82.3267 343° North 389 448 43,000 35 Climbing Jacksonville Center
Sat 05:28:33 PM 31.8108 -82.3942 344° North 385 443 43,000  Level Atlanta Center
Sat 05:29:33 PM 31.9197 -82.4314 344° North 390 449 43,000  Level Atlanta Center
Sat 05:30:33 PM 32.0289 -82.4711 343° North 400 460 43,000  Level Atlanta Center
Sat 05:31:33 PM 32.1378 -82.5108 343° North 405 466 43,000  Level Atlanta Center
Sat 05:32:33 PM 32.2511 -82.5481 344° North 405 466 43,000  Level Atlanta Center
Sat 05:33:33 PM 32.3581 -82.5881 342° North 405 466 43,000  Level Atlanta Center
Sat 05:34:33 PM 32.4775 -82.6281 344° North 410 472 43,000  Level Atlanta Center
Sat 05:35:33 PM 32.5864 -82.6656 344° North 416 479 43,000  Level Atlanta Center
Sat 05:36:33 PM 32.6975 -82.7108 341° North 416 479 43,000  Level Atlanta Center
Sat 05:37:33 PM 32.8128 -82.7486 345° North 421 484 43,000  Level Atlanta Center
Sat 05:38:33 PM 32.9236 -82.7892 343° North 421 484 43,000  Level Atlanta Center
Sat 05:39:33 PM 33.0389 -82.8319 343° North 421 484 43,000  Level Atlanta Center
Sat 05:40:33 PM 33.1542 -82.8750 343° North 421 484 43,000  Level Atlanta Center
Sat 05:41:33 PM 33.2694 -82.9158 344° North 421 484 43,000  Level Atlanta Center
Sat 05:42:33 PM 33.3886 -82.9567 344° North 429 494 43,000  Level Atlanta Center
Sat 05:43:33 PM 33.5039 -82.9950 345° North 429 494 43,000  Level Atlanta Center
Sat 05:44:33 PM 33.6169 -83.0386 342° North 424 488 43,000  Level Atlanta Center
Sat 05:45:33 PM 33.7300 -83.0797 343° North 419 482 43,000  Level Atlanta Center
Sat 05:46:33 PM 33.8472 -83.1233 343° North 424 488 43,000  Level Atlanta Center
Sat 05:47:33 PM 33.9728 -83.1672 344° North 430 495 43,000  Level Atlanta Center
Sat 05:48:33 PM 34.0878 -83.2111 342° North 424 488 43,000  Level Atlanta Center
Sat 05:49:33 PM 34.2028 -83.2500 344° North 424 488 43,000  Level Atlanta Center
Sat 05:50:33 PM 34.3181 -83.2944 342° North 424 488 43,000  Level Atlanta Center
Sat 05:51:33 PM 34.4331 -83.3361 343° North 424 488 43,000  Level Atlanta Center
Sat 05:52:33 PM 34.5458 -83.3781 343° North 424 488 43,000  Level Atlanta Center
Sat 05:53:33 PM 34.6608 -83.4200 343° North 424 488 43,000  Level Atlanta Center
Sat 05:54:33 PM 34.7633 -83.4622 341° North 424 488 43,000  Level Atlanta Center
Sat 05:55:33 PM 34.8742 -83.5047 343° North 424 488 43,000  Level Atlanta Center
Sat 05:56:33 PM 34.9892 -83.5469 343° North 429 494 43,000  Level Atlanta Center
Sat 05:57:33 PM 35.1000 -83.5894 343° North 424 488 43,000  Level Atlanta Center
Sat 05:58:33 PM 35.2128 -83.6319 343° North 424 488 43,000  Level Atlanta Center
Sat 05:59:33 PM 35.3256 -83.6747 343° North 424 488 43,000  Level Atlanta Center
Sat 06:00:33 PM 35.4361 -83.7175 343° North 424 488 43,000  Level Atlanta Center
Sat 06:01:33 PM 35.5489 -83.7606 343° North 424 488 43,000  Level Atlanta Center
Sat 06:02:33 PM 35.6617 -83.8011 344° North 424 488 43,000  Level Atlanta Center
Sat 06:03:33 PM 35.7744 -83.8467 342° North 419 482 43,000 -200 Level Atlanta Center
Sat 06:04:33 PM 35.8872 -83.8850 345° North 419 482 42,600 -800 Descending Atlanta Center
Sat 06:05:33 PM 36.0039 -83.8797 North 411 473 41,400 -1,422 Descending Atlanta Center
Sat 06:06:48 PM 36.1611 -83.8508 North 414 476 39,400 -1,445 Descending Indianapolis Center
Sat 06:07:50 PM 36.2753 -83.8300 North 415 478 38,100 -677 Descending Indianapolis Center
Sat 06:08:52 PM 36.3906 -83.8103 North 417 480 38,000 -48 Descending Indianapolis Center
Sat 06:09:54 PM 36.5067 -83.7889 North 422 486 38,000  Level Indianapolis Center
Sat 06:10:55 PM 36.6272 -83.7708 North 427 491 38,000 -344 Level Indianapolis Center
Sat 06:11:56 PM 36.7444 -83.7486 North 423 487 37,300 -1,220 Descending Indianapolis Center
Sat 06:12:58 PM 36.8619 -83.7289 North 421 484 35,500 -1,790 Descending Indianapolis Center
Sat 06:14:00 PM 36.9808 -83.7064 North 426 490 33,600 -1,220 Descending Indianapolis Center
Sat 06:15:01 PM 37.1208 -83.6819 North 430 495 33,000 -293 Descending Indianapolis Center
Sat 06:16:03 PM 37.2411 -83.6611 North 432 497 33,000 -726 Level Indianapolis Center
Sat 06:17:05 PM 37.3622 -83.6386 North 435 501 31,500 -2,488 Descending Indianapolis Center
Sat 06:18:06 PM 37.4819 -83.6158 North 433 498 27,900 -3,512 Descending Indianapolis Center
Sat 06:19:08 PM 37.6014 -83.5961 North 429 494 24,300 -1,984 Descending Indianapolis Center
Sat 06:20:10 PM 37.7128 -83.6361 344° North 423 487 23,800 -1,220 Descending Indianapolis Center
Sat 06:21:11 PM 37.8153 -83.7106 330° Northwest 423 487 21,800 -1,854 Descending Indianapolis Center
Sat 06:22:13 PM 37.9189 -83.7833 331° Northwest 424 488 20,000 -1,902 Descending Indianapolis Center
Sat 06:23:14 PM 38.0347 -83.8686 330° Northwest 413 475 17,900 -1,756 Descending Indianapolis Center
Sat 06:24:16 PM 38.1333 -83.9386 331° Northwest 406 467 16,400 -1,512 Descending Indianapolis Center
Sat 06:25:17 PM 38.2319 -84.0086 331° Northwest 405 466 14,800 -1,561 Descending Indianapolis Center
Sat 06:26:19 PM 38.3289 -84.0783 331° Northwest 399 459 13,200 -1,355 Descending Indianapolis Center
Sat 06:27:21 PM 38.4231 -84.1461 331° Northwest 389 448 12,000 -585 Descending Indianapolis Center
Sat 06:28:22 PM 38.5178 -84.2003 336° Northwest 376 433 12,000 -341 Level Indianapolis Center
Sat 06:29:24 PM 38.6175 -84.2361 344° North 372 428 11,300 -1,122 Descending Indianapolis Center
Sat 06:30:25 PM 38.7047 -84.2683 344° North 301 346 9,700 -1,707 Descending Indianapolis Center
Sat 06:31:27 PM 38.7786 -84.2953 344° North 278 320 7,800 -1,854 Descending Indianapolis Center
Sat 06:32:28 PM 38.8494 -84.3233 343° North 269 310 5,900 -1,854 Descending Indianapolis Center
Sat 06:33:30 PM 38.9200 -84.3492 344° North 265 305 4,000 -1,113 Descending Indianapolis Center
Sat 06:34:32 PM 38.9892 -84.3756 343° North 265 305 3,600 -648 Descending Indianapolis Center
Sat 06:36:26 PM 39.1000 -84.3500 10° North 208 239 2,100 -617 Descending Cincinnati TRACON
Sat 06:37:27 PM 39.1333 -84.3667 339° North 156 180 1,800 -295 Descending Cincinnati TRACON
Sat 06:39:00 PM 39.1000 -84.4167 229° Southwest  Level FlightAware Approximate

Login

Don't have an account? Register now (free) for customized features, flight alerts, and more!